Time;durP1;ratioP1;P1;durP2;ratioP2;P2;SDS_P1;SDS_P2;PMS_P1;PMS_P2;Temp;Humidity;BMP_temperature;BMP_pressure;BME280_temperature;BME280_humidity;BME280_pressure;Samples;Min_cycle;Max_cycle;Signal;HPM_P1;HPM_P2
2022/08/14 00:00:20;;;;;;;10.73;5.87;;;;;;;22.26;48.79;100951.16;5224196;28;20038;-75
2022/08/14 00:02:51;;;;;;;11.00;6.13;;;;;;;22.19;49.24;100954.16;5223676;28;20037;-76
2022/08/14 00:05:22;;;;;;;14.30;6.10;;;;;;;22.15;49.17;100955.31;5223641;28;20038;-75
2022/08/14 00:07:54;;;;;;;15.17;6.33;;;;;;;22.02;49.26;100946.31;5205840;28;20038;-75
2022/08/14 00:10:25;;;;;;;18.53;6.13;;;;;;;21.97;49.64;100948.41;5223575;28;20042;-75
2022/08/14 00:12:57;;;;;;;9.67;6.13;;;;;;;21.76;50.17;100942.53;5205487;28;20096;-75
2022/08/14 00:15:35;;;;;;;9.17;5.87;;;;;;;21.45;50.25;100934.47;5223624;28;20030;-75
2022/08/14 00:18:09;;;;;;;11.57;6.22;;;;;;;21.51;50.38;100933.31;5223219;28;20356;-75
2022/08/14 00:20:42;;;;;;;14.77;5.85;;;;;;;21.56;50.93;100925.97;5222338;28;20391;-76
2022/08/14 00:23:14;;;;;;;9.38;5.90;;;;;;;21.40;50.86;100931.25;5223151;28;20037;-75
2022/08/14 00:25:52;;;;;;;12.02;6.00;;;;;;;21.41;51.51;100932.97;5223424;28;20532;-75
2022/08/14 00:28:26;;;;;;;7.18;5.85;;;;;;;21.40;51.78;100925.09;5223636;28;20034;-75
2022/08/14 00:30:58;;;;;;;10.13;6.30;;;;;;;21.37;51.43;100923.44;5223102;28;20030;-75
2022/08/14 00:33:31;;;;;;;10.55;6.68;;;;;;;21.09;51.65;100917.03;5205860;28;20026;-76
2022/08/14 00:36:03;;;;;;;13.60;7.22;;;;;;;21.17;51.62;100915.75;5222698;28;20038;-76
2022/08/14 00:38:35;;;;;;;12.10;6.20;;;;;;;21.21;52.16;100907.53;5223090;28;20026;-76
2022/08/14 00:41:07;;;;;;;12.05;6.25;;;;;;;21.28;51.71;100911.56;5223363;28;20089;-76
2022/08/14 00:43:38;;;;;;;;;;;;;;;21.39;49.42;100912.75;5201645;28;20246;-75
2022/08/14 00:46:10;;;;;;;14.83;6.60;;;;;;;21.16;52.11;100906.09;5201215;28;20012;-75
2022/08/14 00:48:41;;;;;;;14.23;6.63;;;;;;;20.85;52.79;100899.81;5202141;28;20069;-75
2022/08/14 00:51:14;;;;;;;6.03;5.40;;;;;;;20.76;52.84;100894.06;5184932;28;20121;-76
2022/08/14 00:53:49;;;;;;;10.18;6.53;;;;;;;20.73;53.13;100890.72;5201738;28;20117;-75
2022/08/14 00:56:20;;;;;;;13.02;6.82;;;;;;;20.75;52.94;100887.06;5202360;28;20468;-76
2022/08/14 00:58:53;;;;;;;6.80;5.63;;;;;;;20.61;53.37;100888.69;5202499;28;20034;-75
2022/08/14 01:01:24;;;;;;;11.65;6.93;;;;;;;20.56;53.81;100883.66;5202494;28;20030;-75
2022/08/14 01:03:57;;;;;;;10.13;6.07;;;;;;;20.48;53.86;100886.72;5203370;28;20035;-76
2022/08/14 01:06:31;;;;;;;9.40;5.82;;;;;;;20.31;54.27;100881.44;5204208;28;20069;-75
2022/08/14 01:09:03;;;;;;;13.07;5.80;;;;;;;20.11;54.94;100878.03;5203494;28;20100;-75
2022/08/14 01:11:37;;;;;;;9.10;6.33;;;;;;;20.18;54.60;100878.56;5202771;28;20022;-76
2022/08/14 01:14:09;;;;;;;6.70;5.28;;;;;;;20.30;54.35;100870.00;5202427;28;20038;-76
2022/08/14 01:16:40;;;;;;;7.77;6.23;;;;;;;20.36;54.83;100871.47;5202128;28;20490;-76
2022/08/14 01:22:06;;;;;;;10.30;6.30;;;;;;;20.13;55.05;100873.50;5202142;28;20118;-75
2022/08/14 01:24:37;;;;;;;10.15;6.60;;;;;;;20.12;55.24;100865.66;5201761;28;20154;-75
2022/08/14 01:27:17;;;;;;;7.67;5.63;;;;;;;20.13;55.23;100862.09;5201743;28;20110;-74
2022/08/14 01:29:51;;;;;;;8.48;5.63;;;;;;;20.15;55.87;100862.84;5201484;28;20436;-75
2022/08/14 01:32:22;;;;;;;10.82;5.78;;;;;;;20.16;55.47;100868.06;5201605;28;20022;-75
2022/08/14 01:34:55;;;;;;;6.57;5.90;;;;;;;20.34;55.37;100871.53;5202132;28;20052;-74
2022/08/14 01:37:27;;;;;;;10.57;5.65;;;;;;;20.10;55.49;100873.66;5201665;28;20034;-74
2022/08/14 01:40:00;;;;;;;8.50;5.90;;;;;;;20.14;55.45;100864.66;5201460;28;20042;-74
2022/08/14 01:42:31;;;;;;;;;;;;;;;20.20;53.07;100866.97;5211535;28;20445;-74
2022/08/14 01:45:10;;;;;;;10.30;5.73;;;;;;;19.91;56.35;100867.59;5221768;28;19921;-74
2022/08/14 01:47:42;;;;;;;6.63;5.93;;;;;;;19.88;56.17;100873.06;5221982;28;20038;-74
2022/08/14 01:50:15;;;;;;;8.80;5.20;;;;;;;19.84;56.54;100872.34;5221618;28;20033;-74
2022/08/14 01:52:47;;;;;;;7.82;5.60;;;;;;;19.95;56.84;100875.31;5221528;28;20034;-74
2022/08/14 01:55:19;;;;;;;6.60;5.37;;;;;;;19.93;56.29;100871.91;5204035;28;20038;-75
2022/08/14 01:57:50;;;;;;;7.70;5.38;;;;;;;19.75;56.70;100878.06;5221196;28;20164;-73
2022/08/14 02:00:22;;;;;;;7.73;6.37;;;;;;;19.70;56.69;100865.06;5222298;28;20030;-74
2022/08/14 02:02:55;;;;;;;6.60;5.47;;;;;;;19.70;56.90;100862.44;5221222;28;20025;-75
2022/08/14 02:05:30;;;;;;;7.90;6.00;;;;;;;19.56;57.33;100863.13;5221431;28;20315;-74
2022/08/14 02:08:01;;;;;;;7.93;6.43;;;;;;;19.64;57.96;100862.72;5220957;28;20399;-73
2022/08/14 02:10:34;;;;;;;6.80;6.03;;;;;;;19.59;57.63;100856.81;5221309;28;20029;-74
2022/08/14 02:13:07;;;;;;;8.02;6.20;;;;;;;19.28;58.27;100850.38;5221068;28;20026;-75
2022/08/14 02:15:39;;;;;;;9.63;6.13;;;;;;;19.56;57.95;100855.19;5221074;28;20487;-74
2022/08/14 02:18:10;;;;;;;8.40;6.28;;;;;;;19.30;58.24;100846.75;5221226;28;20135;-74
2022/08/14 02:20:42;;;;;;;7.73;6.00;;;;;;;19.57;58.19;100854.25;5221487;28;20475;-74
2022/08/14 02:23:13;;;;;;;12.20;6.40;;;;;;;19.46;58.31;100846.84;5220779;28;20034;-74
2022/08/14 02:25:45;;;;;;;11.80;6.80;;;;;;;19.23;58.46;100845.31;5220987;28;20125;-74
2022/08/14 02:28:16;;;;;;;13.30;6.73;;;;;;;19.24;58.75;100846.16;5220957;28;20487;-74
2022/08/14 02:30:47;;;;;;;10.43;7.30;;;;;;;19.30;58.73;100852.03;5203336;28;20036;-76
2022/08/14 02:33:20;;;;;;;13.17;7.63;;;;;;;19.48;58.69;100857.34;5221234;28;20087;-74
2022/08/14 02:35:51;;;;;;;11.07;7.05;;;;;;;19.28;59.48;100845.09;5221019;28;20033;-74
2022/08/14 02:38:23;;;;;;;11.85;7.45;;;;;;;19.05;59.60;100846.22;5220670;28;20037;-75
2022/08/14 02:40:54;;;;;;;13.63;6.90;;;;;;;18.92;59.80;100841.50;5203729;28;20034;-75
2022/08/14 02:43:28;;;;;;;15.23;8.03;;;;;;;18.77;60.06;100845.69;5202288;28;20053;-81
2022/08/14 02:46:00;;;;;;;13.82;7.60;;;;;;;18.82;60.22;100834.91;5220763;28;20490;-74
2022/08/14 02:48:34;;;;;;;9.10;6.70;;;;;;;18.81;60.17;100837.63;5203144;28;20030;-75
2022/08/14 02:51:12;;;;;;;15.40;7.07;;;;;;;18.79;60.87;100837.69;5220907;28;20116;-75
2022/08/14 02:53:45;;;;;;;11.10;6.72;;;;;;;18.76;60.75;100841.31;5221138;28;20105;-74
2022/08/14 02:56:18;;;;;;;11.18;5.93;;;;;;;18.49;60.65;100838.16;5220306;28;20030;-74
2022/08/14 02:58:50;;;;;;;8.60;6.85;;;;;;;18.68;60.38;100842.59;5220237;28;20034;-74
2022/08/14 03:01:23;;;;;;;;;;;;;;;18.81;57.89;100843.75;5221228;28;20073;-74
2022/08/14 03:03:57;;;;;;;9.83;6.80;;;;;;;18.69;60.43;100826.69;5220807;28;19936;-74
2022/08/14 03:06:28;;;;;;;10.00;6.07;;;;;;;18.61;60.79;100827.94;5220488;28;20490;-74
2022/08/14 03:09:00;;;;;;;7.93;7.00;;;;;;;18.69;60.49;100826.69;5220681;28;20030;-74
2022/08/14 03:11:31;;;;;;;11.40;6.53;;;;;;;18.65;60.47;100821.63;5220863;28;20478;-74
2022/08/14 03:14:03;;;;;;;8.93;7.00;;;;;;;18.67;60.55;100825.03;5220304;28;20453;-74
2022/08/14 03:16:35;;;;;;;9.77;7.43;;;;;;;18.56;60.86;100826.41;5220523;28;20030;-74
2022/08/14 03:19:07;;;;;;;7.33;6.57;;;;;;;18.29;61.70;100820.56;5202601;28;20095;-74
2022/08/14 03:21:39;;;;;;;11.50;6.97;;;;;;;18.37;61.53;100825.47;5220237;28;20034;-74
2022/08/14 03:24:13;;;;;;;7.43;6.10;;;;;;;18.23;61.83;100824.31;5220132;28;20061;-74
2022/08/14 03:26:45;;;;;;;9.57;7.28;;;;;;;18.01;62.26;100821.75;5220529;28;20371;-74
2022/08/14 03:29:19;;;;;;;13.70;7.15;;;;;;;18.13;61.77;100820.38;5220200;28;20160;-74
2022/08/14 03:31:50;;;;;;;8.15;6.35;;;;;;;17.96;62.59;100813.19;5220594;28;20498;-76
2022/08/14 03:34:22;;;;;;;8.10;7.30;;;;;;;17.91;62.68;100817.81;5219873;28;20065;-74
2022/08/14 03:36:57;;;;;;;9.90;6.50;;;;;;;17.76;63.14;100811.41;5220120;28;20356;-74
2022/08/14 03:39:28;;;;;;;9.02;8.02;;;;;;;17.79;63.59;100807.75;5220189;28;20493;-74
2022/08/14 03:41:59;;;;;;;11.97;7.93;;;;;;;17.69;63.24;100812.56;5219723;28;20050;-74
2022/08/14 03:44:34;;;;;;;9.23;7.50;;;;;;;17.75;63.47;100801.75;5220079;28;20029;-74
2022/08/14 03:47:05;;;;;;;13.32;8.02;;;;;;;17.82;63.67;100803.22;5220056;28;20375;-74
2022/08/14 03:49:38;;;;;;;13.60;8.33;;;;;;;17.81;63.75;100809.41;5220094;28;20109;-74
2022/08/14 03:52:11;;;;;;;15.93;7.72;;;;;;;17.64;63.90;100810.13;5219916;28;20276;-74
2022/08/14 03:54:45;;;;;;;11.07;7.85;;;;;;;17.54;63.74;100814.06;5205578;28;20065;-74
2022/08/14 03:57:16;;;;;;;11.07;8.50;;;;;;;17.48;64.49;100809.91;5223691;28;20399;-74
2022/08/14 03:59:48;;;;;;;10.90;8.40;;;;;;;17.48;64.71;100814.31;5223739;28;20033;-75
2022/08/14 04:02:21;;;;;;;11.87;8.33;;;;;;;17.35;65.12;100821.84;5206021;28;20045;-74
2022/08/14 04:04:52;;;;;;;14.55;9.40;;;;;;;17.19;65.38;100811.06;5206488;28;20117;-75
2022/08/14 04:07:23;;;;;;;10.83;8.40;;;;;;;17.30;65.53;100810.66;5206043;28;20447;-73
2022/08/14 04:09:55;;;;;;;12.93;8.07;;;;;;;17.22;65.60;100810.09;5224038;28;20034;-75
2022/08/14 04:12:26;;;;;;;8.73;7.43;;;;;;;17.28;65.47;100815.97;5205532;28;20037;-74
2022/08/14 04:14:58;;;;;;;13.17;7.60;;;;;;;17.12;65.92;100810.47;5223415;28;20034;-74
2022/08/14 04:17:32;;;;;;;8.82;7.88;;;;;;;17.12;65.95;100807.84;5222973;28;20054;-74
2022/08/14 04:20:06;;;;;;;8.98;6.80;;;;;;;17.08;66.17;100805.38;5223428;28;20410;-75
2022/08/14 04:22:42;;;;;;;12.30;7.70;;;;;;;17.23;66.58;100798.66;5223206;28;20058;-75
2022/08/14 04:25:13;;;;;;;8.25;7.32;;;;;;;17.11;65.71;100800.88;5205610;28;20045;-74
2022/08/14 04:27:45;;;;;;;8.67;7.43;;;;;;;17.13;65.75;100803.44;5223669;28;20088;-74
2022/08/14 04:30:17;;;;;;;12.10;7.32;;;;;;;17.09;66.31;100792.16;5222993;28;20029;-74
2022/08/14 04:32:50;;;;;;;9.03;7.37;;;;;;;17.07;66.59;100801.91;5222914;28;20040;-74
2022/08/14 04:35:21;;;;;;;10.18;7.63;;;;;;;17.04;66.40;100788.00;5223424;28;20101;-74
2022/08/14 04:43:35;;;;;;;9.82;8.63;;;;;;;16.82;66.74;100777.41;5223224;28;20049;-75
2022/08/14 04:46:09;;;;;;;10.07;7.82;;;;;;;17.08;67.21;100784.31;5223053;28;20069;-75
2022/08/14 04:48:41;;;;;;;11.48;8.55;;;;;;;17.06;67.04;100775.63;5222634;28;20034;-75
2022/08/14 04:51:15;;;;;;;8.50;7.40;;;;;;;16.92;67.09;100774.41;5222980;28;20371;-74
2022/08/14 04:53:48;;;;;;;9.15;7.95;;;;;;;17.25;67.06;100773.94;5222815;28;20108;-75
2022/08/14 04:56:23;;;;;;;8.40;7.50;;;;;;;17.17;67.90;100780.47;5205064;28;20026;-75
2022/08/14 04:58:59;;;;;;;9.43;7.45;;;;;;;17.01;67.76;100767.91;5222625;28;20087;-75
2022/08/14 05:01:30;;;;;;;10.05;7.57;;;;;;;16.94;67.83;100775.19;5222597;28;20124;-75
2022/08/14 05:04:02;;;;;;;12.87;8.83;;;;;;;16.98;67.86;100775.91;5222342;28;20456;-76
2022/08/14 05:06:34;;;;;;;9.10;8.20;;;;;;;17.19;68.46;100762.81;5221880;28;20423;-75
2022/08/14 05:09:06;;;;;;;11.03;7.73;;;;;;;16.98;67.76;100757.50;5222483;28;20451;-75
2022/08/14 05:11:37;;;;;;;;;;;;;;;17.29;65.20;100764.13;5223408;28;20378;-74
2022/08/14 05:14:09;;;;;;;15.00;8.97;;;;;;;17.25;67.72;100766.06;5222213;28;19913;-75
2022/08/14 05:16:41;;;;;;;13.07;8.57;;;;;;;17.41;68.83;100768.91;5222343;28;20264;-75
2022/08/14 05:19:13;;;;;;;12.43;8.47;;;;;;;17.42;68.71;100761.84;5222523;28;20380;-75
2022/08/14 05:21:44;;;;;;;9.27;7.80;;;;;;;17.25;68.21;100763.41;5222569;28;20084;-75
2022/08/14 05:24:16;;;;;;;11.63;9.13;;;;;;;17.23;68.68;100762.63;5222226;28;20033;-75
2022/08/14 05:26:47;;;;;;;10.87;9.00;;;;;;;17.31;68.95;100763.16;5222592;28;20479;-75
2022/08/14 05:29:19;;;;;;;17.40;9.20;;;;;;;17.38;69.59;100763.78;5222184;28;20042;-76
2022/08/14 05:31:50;;;;;;;12.07;9.27;;;;;;;17.35;68.94;100760.41;5222632;28;20439;-75
2022/08/14 05:34:22;;;;;;;14.93;9.50;;;;;;;17.40;68.89;100758.44;5222050;28;20477;-74
2022/08/14 05:36:56;;;;;;;14.52;8.75;;;;;;;17.45;68.96;100759.09;5221885;28;20061;-76
2022/08/14 05:39:29;;;;;;;16.13;9.35;;;;;;;17.64;69.22;100760.03;5222031;28;20041;-75
2022/08/14 05:42:01;;;;;;;10.75;8.90;;;;;;;17.74;68.64;100767.53;5221504;28;20352;-76
2022/08/14 05:44:32;;;;;;;12.70;9.95;;;;;;;17.58;68.75;100762.06;5221662;28;20037;-75
2022/08/14 05:47:04;;;;;;;9.67;8.77;;;;;;;17.73;68.87;100757.94;5221698;28;20034;-75
2022/08/14 05:49:35;;;;;;;12.03;9.33;;;;;;;17.82;69.57;100754.88;5221487;28;20038;-75
2022/08/14 05:52:07;;;;;;;13.90;9.70;;;;;;;17.98;70.55;100750.72;5203948;28;20037;-75
2022/08/14 05:54:38;;;;;;;18.43;10.00;;;;;;;18.07;70.12;100749.44;5204030;28;20479;-75
2022/08/14 05:57:10;;;;;;;17.10;10.67;;;;;;;18.13;70.84;100756.19;5204408;28;20037;-75
2022/08/14 05:59:41;;;;;;;11.73;9.80;;;;;;;18.36;70.67;100763.94;5221815;28;20109;-75
2022/08/14 06:02:12;;;;;;;11.90;9.90;;;;;;;18.32;69.59;100762.38;5221338;28;20040;-75
2022/08/14 06:04:47;;;;;;;12.47;9.93;;;;;;;18.52;69.57;100757.97;5221814;28;20148;-75
2022/08/14 06:07:18;;;;;;;15.77;9.25;;;;;;;18.60;68.73;100761.09;5203695;28;20037;-75
2022/08/14 06:09:50;;;;;;;12.03;9.87;;;;;;;18.75;68.34;100759.53;5221611;28;20428;-75
2022/08/14 06:12:21;;;;;;;13.90;9.55;;;;;;;18.92;69.24;100762.25;5221283;28;20095;-75
2022/08/14 06:14:53;;;;;;;11.67;8.40;;;;;;;19.05;66.69;100762.50;5221212;28;20038;-75
2022/08/14 06:17:25;;;;;;;12.87;9.00;;;;;;;19.10;66.60;100757.84;5220799;28;20045;-75
2022/08/14 06:19:57;;;;;;;9.88;8.85;;;;;;;19.35;67.00;100753.16;5221159;28;20034;-75
2022/08/14 06:22:28;;;;;;;10.63;8.40;;;;;;;19.43;67.08;100764.19;5221221;28;20038;-74
2022/08/14 06:25:00;;;;;;;13.00;8.87;;;;;;;19.56;67.86;100760.00;5221779;28;20642;-74
2022/08/14 06:27:36;;;;;;;11.40;8.97;;;;;;;19.70;65.54;100756.63;5220794;28;20080;-74
2022/08/14 06:30:11;;;;;;;10.40;7.88;;;;;;;19.81;64.81;100749.03;5220994;28;20022;-74
2022/08/14 06:32:43;;;;;;;10.93;8.40;;;;;;;19.93;64.62;100744.03;5221239;28;20033;-75
2022/08/14 06:35:17;;;;;;;10.65;8.63;;;;;;;20.08;63.68;100742.41;5220654;28;20091;-75
2022/08/14 06:37:48;;;;;;;9.27;8.38;;;;;;;20.13;63.32;100738.56;5220721;28;20030;-74
2022/08/14 06:40:22;;;;;;;9.93;8.47;;;;;;;20.26;62.76;100746.69;5220417;28;20029;-74
2022/08/14 06:42:55;;;;;;;12.00;8.20;;;;;;;20.39;63.40;100745.06;5221091;28;20050;-74
2022/08/14 06:45:28;;;;;;;12.43;8.95;;;;;;;20.46;62.28;100742.09;5221404;28;20038;-75
2022/08/14 06:48:00;;;;;;;;;;;;;;;20.63;61.85;100739.38;5221056;28;20029;-74
2022/08/14 06:50:31;;;;;;;12.07;7.93;;;;;;;20.71;61.67;100734.53;5220782;28;20003;-75
2022/08/14 06:53:02;;;;;;;9.67;7.50;;;;;;;20.82;61.45;100738.34;5203864;28;20048;-76
2022/08/14 06:55:34;;;;;;;9.97;8.37;;;;;;;20.91;61.39;100744.03;5205616;28;20042;-75
2022/08/14 06:58:09;;;;;;;9.55;7.85;;;;;;;21.03;60.01;100741.59;5223653;28;20089;-75
2022/08/14 07:05:44;;;;;;;10.90;7.15;;;;;;;21.14;60.85;100731.25;5224018;28;20034;-78
2022/08/14 07:06:23;;;;;;;11.10;8.77;;;;;;;21.33;60.64;100733.66;5220718;28;20042;-74
2022/08/14 07:08:54;;;;;;;11.10;8.32;;;;;;;21.38;62.68;100725.44;5221178;28;20095;-75
2022/08/14 07:11:26;;;;;;;8.40;7.53;;;;;;;21.53;59.76;100719.25;5220848;28;20072;-74
2022/08/14 07:13:58;;;;;;;12.07;7.13;;;;;;;21.64;58.35;100716.81;5202995;28;20084;-74
2022/08/14 07:16:29;;;;;;;10.97;7.57;;;;;;;21.73;57.96;100725.16;5220855;28;20364;-75
2022/08/14 07:19:01;;;;;;;8.02;7.22;;;;;;;21.82;57.93;100722.78;5220154;28;20030;-74
2022/08/14 07:21:33;;;;;;;9.07;6.80;;;;;;;21.90;58.61;100721.50;5220666;28;20464;-74
2022/08/14 07:24:04;;;;;;;9.03;6.87;;;;;;;21.99;56.61;100726.22;5220181;28;20462;-74
2022/08/14 07:26:36;;;;;;;7.65;6.43;;;;;;;22.09;56.93;100727.38;5220369;28;20056;-74
2022/08/14 07:29:07;;;;;;;9.07;6.33;;;;;;;22.16;58.17;100731.31;5222799;28;20080;-74
2022/08/14 07:31:39;;;;;;;8.13;6.10;;;;;;;22.31;55.86;100726.03;5224194;28;20041;-75
2022/08/14 07:34:10;;;;;;;9.97;6.47;;;;;;;22.44;55.98;100723.47;5224480;28;20030;-73
2022/08/14 07:36:41;;;;;;;10.43;6.50;;;;;;;22.45;56.77;100727.84;5206438;28;20034;-75
2022/08/14 07:39:13;;;;;;;10.00;6.00;;;;;;;22.66;55.82;100730.91;5224615;28;20034;-74
2022/08/14 07:41:44;;;;;;;9.20;5.13;;;;;;;22.70;54.95;100724.44;5224082;28;20145;-74
2022/08/14 07:44:17;;;;;;;8.60;6.13;;;;;;;22.77;55.45;100723.94;5224000;28;20033;-74
2022/08/14 07:46:48;;;;;;;9.02;5.75;;;;;;;22.95;53.78;100721.03;5223927;28;20541;-75
2022/08/14 07:49:20;;;;;;;10.20;6.23;;;;;;;23.04;55.17;100728.41;5225206;28;20046;-74
2022/08/14 07:51:53;;;;;;;10.05;5.93;;;;;;;23.15;53.87;100725.06;5206467;28;20026;-74
2022/08/14 07:54:25;;;;;;;6.38;5.45;;;;;;;23.11;53.50;100726.22;5224427;28;20025;-75
2022/08/14 07:57:00;;;;;;;10.17;5.50;;;;;;;23.17;54.40;100725.81;5206071;28;20037;-75
2022/08/14 07:59:31;;;;;;;7.40;5.28;;;;;;;23.33;54.32;100725.66;5223531;28;20109;-77
2022/08/14 08:02:03;;;;;;;9.27;6.50;;;;;;;23.40;53.04;100729.59;5223433;28;20105;-75
2022/08/14 08:04:38;;;;;;;8.68;5.75;;;;;;;23.58;54.38;100723.97;5205946;28;20053;-77
2022/08/14 08:07:10;;;;;;;11.38;5.15;;;;;;;23.65;51.42;100722.59;5223550;28;20095;-75
2022/08/14 08:09:46;;;;;;;7.55;5.10;;;;;;;23.72;53.48;100726.53;5223376;28;20434;-74
2022/08/14 08:12:19;;;;;;;10.05;5.45;;;;;;;23.87;52.90;100727.31;5223763;28;20105;-75
2022/08/14 08:14:51;;;;;;;9.07;5.75;;;;;;;23.95;52.01;100724.13;5223440;28;20379;-73
2022/08/14 08:17:22;;;;;;;9.38;4.85;;;;;;;24.09;52.00;100721.34;5223385;28;20037;-75
2022/08/14 08:19:56;;;;;;;11.48;5.32;;;;;;;24.35;51.41;100714.13;5223048;28;20188;-74
2022/08/14 08:22:27;;;;;;;10.23;5.03;;;;;;;24.35;51.06;100705.31;5206480;28;20052;-74
2022/08/14 08:24:59;;;;;;;9.88;4.88;;;;;;;24.56;49.95;100705.59;5223356;28;20034;-74
2022/08/14 08:27:30;;;;;;;12.05;5.55;;;;;;;24.51;51.19;100697.06;5205548;28;20099;-73
2022/08/14 08:30:06;;;;;;;8.10;5.07;;;;;;;24.77;48.15;100705.81;5223183;28;20461;-80
2022/08/14 08:32:42;;;;;;;8.98;5.13;;;;;;;24.90;48.80;100687.09;5223184;28;20069;-75
2022/08/14 08:35:25;;;;;;;6.15;5.55;;;;;;;24.95;50.04;100698.25;5206822;28;20030;-75
2022/08/14 08:38:04;;;;;;;7.00;4.97;;;;;;;25.05;48.02;100695.75;5206005;28;20489;-79
2022/08/14 08:40:41;;;;;;;8.35;5.05;;;;;;;25.05;48.59;100711.75;5221338;28;20029;-75
2022/08/14 08:43:27;;;;;;;5.82;4.75;;;;;;;25.34;46.54;100704.28;5222947;28;20053;-75
2022/08/14 08:46:05;;;;;;;7.18;4.90;;;;;;;25.43;46.99;100705.38;5222921;28;20030;-75
2022/08/14 08:48:45;;;;;;;5.32;4.43;;;;;;;25.51;45.42;100710.13;5222795;28;20030;-73
2022/08/14 08:51:40;;;;;;;6.05;4.63;;;;;;;25.59;47.70;100699.72;5222527;28;20026;-75
2022/08/14 08:54:14;;;;;;;9.25;4.85;;;;;;;25.79;43.71;100696.34;5222793;28;20463;-75
2022/08/14 08:56:53;;;;;;;5.43;4.68;;;;;;;25.88;44.50;100694.75;5222279;28;20049;-75
2022/08/14 08:59:27;;;;;;;7.95;4.35;;;;;;;26.12;41.65;100691.16;5222399;28;20034;-79
2022/08/14 09:02:01;;;;;;;5.20;4.30;;;;;;;25.83;42.63;100696.94;5223176;28;20062;-76
2022/08/14 09:04:37;;;;;;;5.07;4.57;;;;;;;25.93;44.21;100705.91;5189382;28;20104;-74
2022/08/14 09:07:09;;;;;;;7.30;4.32;;;;;;;26.17;42.55;100699.63;5222486;28;20033;-74
2022/08/14 09:09:53;;;;;;;10.02;4.68;;;;;;;26.08;43.21;100690.50;5222493;28;20026;-75
2022/08/14 09:12:24;;;;;;;8.05;4.20;;;;;;;26.37;42.34;100680.19;5222695;28;20030;-74
2022/08/14 09:14:56;;;;;;;5.53;4.43;;;;;;;26.33;42.95;100684.06;5222235;28;20096;-75
2022/08/14 09:17:27;;;;;;;6.55;4.80;;;;;;;26.51;39.83;100684.38;5222061;28;20538;-74
2022/08/14 09:19:59;;;;;;;6.55;3.83;;;;;;;26.61;42.23;100678.28;5222293;28;20036;-75
2022/08/14 09:22:31;;;;;;;4.50;4.10;;;;;;;26.76;45.20;100677.06;5204814;28;20069;-75
2022/08/14 09:25:05;;;;;;;6.68;4.30;;;;;;;26.78;44.65;100674.25;5222278;28;20153;-77
2022/08/14 09:27:37;;;;;;;7.68;4.85;;;;;;;27.03;41.10;100673.03;5222265;28;20042;-73
2022/08/14 09:30:09;;;;;;;8.90;4.45;;;;;;;27.27;41.08;100670.09;5222131;28;20379;-74
2022/08/14 09:33:01;;;;;;;8.27;4.57;;;;;;;27.38;42.77;100674.59;5221667;28;20082;-73
2022/08/14 09:36:09;;;;;;;4.87;3.93;;;;;;;27.69;43.97;100677.28;5200751;28;20116;-74
2022/08/14 09:39:02;;;;;;;12.40;4.50;;;;;;;27.91;42.06;100673.59;5222110;28;20022;-73
2022/08/14 09:41:36;;;;;;;6.85;4.60;;;;;;;27.83;45.54;100659.00;5221580;28;20076;-75
2022/08/14 09:44:28;;;;;;;5.72;4.45;;;;;;;28.25;40.20;100654.53;5221580;28;20092;-74
2022/08/14 09:47:00;;;;;;;8.20;4.13;;;;;;;28.26;39.75;100656.25;5222540;28;20406;-75
2022/08/14 09:49:33;;;;;;;5.70;4.15;;;;;;;28.62;44.65;100645.88;5221389;28;20048;-73
2022/08/14 09:52:13;;;;;;;6.30;4.30;;;;;;;28.95;44.69;100649.97;5221235;28;20382;-74
2022/08/14 09:54:46;;;;;;;7.53;4.70;;;;;;;29.05;41.84;100636.53;5221653;28;20064;-75
2022/08/14 09:57:27;;;;;;;7.93;5.00;;;;;;;29.48;38.70;100634.31;5221327;28;20148;-75
2022/08/14 10:00:11;;;;;;;10.43;4.50;;;;;;;29.70;38.28;100633.97;5221249;28;20068;-75
2022/08/14 10:03:01;;;;;;;8.07;4.82;;;;;;;30.03;37.59;100637.09;5221587;28;20030;-75
2022/08/14 10:05:35;;;;;;;5.85;4.50;;;;;;;30.16;37.59;100639.44;5221701;28;20045;-75
2022/08/14 10:08:17;;;;;;;7.80;4.65;;;;;;;30.70;36.43;100636.78;5220953;28;20029;-78
2022/08/14 10:10:49;;;;;;;11.27;4.90;;;;;;;31.07;44.91;100627.69;5222017;28;20124;-75
2022/08/14 10:13:23;;;;;;;6.80;4.90;;;;;;;31.79;41.90;100617.50;5221228;28;20085;-75
2022/08/14 10:15:59;;;;;;;7.80;4.57;;;;;;;31.81;34.77;100622.75;5220937;28;20026;-75
2022/08/14 10:18:32;;;;;;;6.75;4.68;;;;;;;31.67;37.53;100615.28;5222597;28;20482;-75
2022/08/14 10:21:06;;;;;;;9.77;4.90;;;;;;;31.99;33.43;100604.63;5222934;28;20029;-74
2022/08/14 10:23:42;;;;;;;6.30;4.32;;;;;;;32.00;33.84;100614.38;5222665;28;20530;-74
2022/08/14 10:26:16;;;;;;;6.88;4.85;;;;;;;32.03;33.13;100617.78;5221465;28;20061;-74
2022/08/14 10:28:50;;;;;;;11.90;4.75;;;;;;;32.04;35.09;100605.97;5221695;28;20455;-74
2022/08/14 10:31:23;;;;;;;6.13;4.85;;;;;;;32.04;37.75;100611.34;5220878;28;20117;-75
2022/08/14 10:34:09;;;;;;;7.35;4.65;;;;;;;32.47;35.81;100595.97;5203360;28;20121;-74
2022/08/14 10:36:42;;;;;;;5.90;4.72;;;;;;;32.49;33.54;100585.84;5220894;28;20514;-74
2022/08/14 10:39:20;;;;;;;8.10;5.35;;;;;;;32.82;32.83;100588.59;5203311;28;20108;-74
2022/08/14 10:42:06;;;;;;;7.80;5.45;;;;;;;32.88;33.57;100582.50;5220639;28;20056;-74
2022/08/14 10:44:41;;;;;;;5.47;4.40;;;;;;;33.01;30.52;100581.97;5221318;28;20486;-74
2022/08/14 10:47:13;;;;;;;7.15;4.50;;;;;;;33.41;33.39;100575.66;5220861;28;20030;-75
2022/08/14 10:49:59;;;;;;;6.50;5.28;;;;;;;33.62;34.27;100588.56;5221003;28;20026;-74
2022/08/14 10:52:33;;;;;;;9.35;5.15;;;;;;;33.78;30.95;100576.88;5220744;28;20439;-75
2022/08/14 10:55:15;;;;;;;8.52;4.90;;;;;;;34.09;30.88;100581.41;5220246;28;20121;-76
2022/08/14 10:57:56;;;;;;;5.70;4.28;;;;;;;34.58;31.47;100579.41;5221260;28;20034;-74
2022/08/14 11:00:28;;;;;;;7.57;4.70;;;;;;;34.97;30.51;100572.97;5220773;28;20037;-74
2022/08/14 11:03:08;;;;;;;5.65;4.75;;;;;;;34.94;30.91;100567.91;5202369;28;20037;-74
2022/08/14 11:05:50;;;;;;;9.48;4.93;;;;;;;35.63;32.75;100572.22;5221383;28;20406;-75
2022/08/14 11:08:31;;;;;;;;;;;;;;;36.88;29.75;100576.47;5222124;28;20030;-74
2022/08/14 11:11:04;;;;;;;8.07;4.55;;;;;;;36.03;27.66;100570.00;5220725;28;19909;-75
2022/08/14 11:13:40;;;;;;;6.28;4.53;;;;;;;36.54;25.96;100572.63;5221233;28;20383;-74
2022/08/14 11:16:14;;;;;;;4.95;3.95;;;;;;;36.39;26.13;100570.00;5220768;28;20117;-75
2022/08/14 11:18:47;;;;;;;7.85;4.70;;;;;;;37.14;25.73;100567.66;5221008;28;20021;-76
2022/08/14 11:21:21;;;;;;;5.97;4.00;;;;;;;37.55;26.72;100566.84;5220566;28;20041;-75
2022/08/14 11:23:54;;;;;;;5.72;4.32;;;;;;;37.98;26.71;100568.47;5220026;28;20057;-75
2022/08/14 11:26:27;;;;;;;11.45;6.30;;;;;;;37.79;23.97;100561.94;5220181;28;20520;-75
2022/08/14 11:29:02;;;;;;;5.25;4.75;;;;;;;37.75;25.13;100569.66;5220383;28;20202;-75
2022/08/14 11:31:37;;;;;;;6.32;4.60;;;;;;;37.33;23.86;100555.25;5220141;28;20042;-75
2022/08/14 11:34:09;;;;;;;7.20;4.55;;;;;;;37.66;27.91;100561.84;5202718;28;20387;-75
2022/08/14 11:36:41;;;;;;;5.80;4.50;;;;;;;37.52;27.01;100563.69;5202975;28;20471;-74
2022/08/14 11:39:22;;;;;;;8.00;4.57;;;;;;;37.29;28.87;100559.41;5203030;28;20034;-75
2022/08/14 11:41:56;;;;;;;5.22;4.40;;;;;;;37.58;24.20;100552.03;5220510;28;20058;-75
2022/08/14 11:44:27;;;;;;;6.03;4.55;;;;;;;37.63;25.04;100552.25;5220046;28;20033;-75
2022/08/14 11:47:00;;;;;;;5.32;3.92;;;;;;;37.79;26.70;100533.88;5219857;28;20034;-75
2022/08/14 11:49:32;;;;;;;5.03;4.47;;;;;;;37.17;24.07;100523.75;5220613;28;20042;-75
2022/08/14 11:52:05;;;;;;;8.50;4.70;;;;;;;37.34;27.06;100527.03;5220115;28;20045;-85
2022/08/14 11:54:37;;;;;;;5.80;4.72;;;;;;;37.94;23.73;100521.78;5202629;28;20033;-75
2022/08/14 11:57:16;;;;;;;10.35;4.95;;;;;;;37.97;24.26;100520.56;5220099;28;20037;-75
2022/08/14 11:59:47;;;;;;;5.95;4.47;;;;;;;38.02;23.01;100515.31;5202754;28;20034;-75
2022/08/14 12:02:18;;;;;;;6.80;4.28;;;;;;;38.45;21.00;100525.84;5202330;28;20053;-76
2022/08/14 12:04:51;;;;;;;7.03;4.53;;;;;;;38.74;24.21;100512.00;5202778;28;20324;-76